Aviation Digital Data Service (ADDS)

Output produced by METARs form (0901 UTC 24 March 2019)
found at http://www.aviationweather.gov/metar/data/
 
METAR text: VABB 240830Z 28009KT 3000 FU NSC 37/16 Q1009 NOSIG
Conditions at: VABB (BOMBAY/SANTACRUZ, IN) observed 0830 UTC 24 March 2019
Temperature: 37.0°C (99°F)
Dewpoint: 16.0°C (61°F) [RH = 29%]
Pressure (altimeter): 29.79 inches Hg (1009.0 mb)
Winds: from the W (280 degrees) at 10 MPH (9 knots; 4.6 m/s)
Visibility: 1.86 miles (2.99 km)
Ceiling: at least 12,000 feet AGL
Clouds: sky clear below 12,000 feet AGL
Weather: FU  (smoke)

METAR text: VABB 240800Z 27011KT 3000 FU NSC 36/18 Q1009 NOSIG
Conditions at: VABB (BOMBAY/SANTACRUZ, IN) observed 0800 UTC 24 March 2019
Temperature: 36.0°C (97°F)
Dewpoint: 18.0°C (64°F) [RH = 35%]
Pressure (altimeter): 29.79 inches Hg (1009.0 mb)
Winds: from the W (270 degrees) at 13 MPH (11 knots; 5.7 m/s)
Visibility: 1.86 miles (2.99 km)
Ceiling: at least 12,000 feet AGL
Clouds: sky clear below 12,000 feet AGL
Weather: FU  (smoke)

METAR text: VABB 240730Z 28007KT 3000 FU NSC 37/16 Q1010 NOSIG
Conditions at: VABB (BOMBAY/SANTACRUZ, IN) observed 0730 UTC 24 March 2019
Temperature: 37.0°C (99°F)
Dewpoint: 16.0°C (61°F) [RH = 29%]
Pressure (altimeter): 29.82 inches Hg (1010.0 mb)
Winds: from the W (280 degrees) at 8 MPH (7 knots; 3.6 m/s)
Visibility: 1.86 miles (2.99 km)
Ceiling: at least 12,000 feet AGL
Clouds: sky clear below 12,000 feet AGL
Weather: FU  (smoke)

METAR text: VABB 240700Z 29009KT 3000 FU NSC 36/16 Q1010 NOSIG
Conditions at: VABB (BOMBAY/SANTACRUZ, IN) observed 0700 UTC 24 March 2019
Temperature: 36.0°C (97°F)
Dewpoint: 16.0°C (61°F) [RH = 31%]
Pressure (altimeter): 29.82 inches Hg (1010.0 mb)
Winds: from the WNW (290 degrees) at 10 MPH (9 knots; 4.6 m/s)
Visibility: 1.86 miles (2.99 km)
Ceiling: at least 12,000 feet AGL
Clouds: sky clear below 12,000 feet AGL
Weather: FU  (smoke)

METAR text: VABB 240630Z 27007KT 3000 FU NSC 35/17 Q1011 NOSIG
Conditions at: VABB (BOMBAY/SANTACRUZ, IN) observed 0630 UTC 24 March 2019
Temperature: 35.0°C (95°F)
Dewpoint: 17.0°C (63°F) [RH = 34%]
Pressure (altimeter): 29.85 inches Hg (1011.0 mb)
Winds: from the W (270 degrees) at 8 MPH (7 knots; 3.6 m/s)
Visibility: 1.86 miles (2.99 km)
Ceiling: at least 12,000 feet AGL
Clouds: sky clear below 12,000 feet AGL
Weather: FU  (smoke)

METAR text: VABB 240600Z 27005KT 3000 FU NSC 35/16 Q1011 NOSIG
Conditions at: VABB (BOMBAY/SANTACRUZ, IN) observed 0600 UTC 24 March 2019
Temperature: 35.0°C (95°F)
Dewpoint: 16.0°C (61°F) [RH = 32%]
Pressure (altimeter): 29.85 inches Hg (1011.0 mb)
Winds: from the W (270 degrees) at 6 MPH (5 knots; 2.6 m/s)
Visibility: 1.86 miles (2.99 km)
Ceiling: at least 12,000 feet AGL
Clouds: sky clear below 12,000 feet AGL
Weather: FU  (smoke)

METAR text: VABB 240530Z 26007KT 2500 FU NSC 33/17 Q1012 BECMG 3000 FU
Conditions at: VABB (BOMBAY/SANTACRUZ, IN) observed 0530 UTC 24 March 2019
Temperature: 33.0°C (91°F)
Dewpoint: 17.0°C (63°F) [RH = 39%]
Pressure (altimeter): 29.88 inches Hg (1012.0 mb)
Winds: from the W (260 degrees) at 8 MPH (7 knots; 3.6 m/s)
Visibility: 1.55 miles (2.49 km)
Ceiling: at least 12,000 feet AGL
Clouds: sky clear below 12,000 feet AGL
Weather: FU  (smoke)

METAR text: VABB 240500Z 30003KT 2500 FU NSC 32/16 Q1012 NOSIG
Conditions at: VABB (BOMBAY/SANTACRUZ, IN) observed 0500 UTC 24 March 2019
Temperature: 32.0°C (90°F)
Dewpoint: 16.0°C (61°F) [RH = 38%]
Pressure (altimeter): 29.88 inches Hg (1012.0 mb)
Winds: from the WNW (300 degrees) at 3 MPH (3 knots; 1.5 m/s)
Visibility: 1.55 miles (2.49 km)
Ceiling: at least 12,000 feet AGL
Clouds: sky clear below 12,000 feet AGL
Weather: FU  (smoke)

METAR text: VABB 240430Z 33004KT 2500 FU NSC 32/15 Q1012 NOSIG
Conditions at: VABB (BOMBAY/SANTACRUZ, IN) observed 0430 UTC 24 March 2019
Temperature: 32.0°C (90°F)
Dewpoint: 15.0°C (59°F) [RH = 36%]
Pressure (altimeter): 29.88 inches Hg (1012.0 mb)
Winds: from the NNW (330 degrees) at 5 MPH (4 knots; 2.1 m/s)
Visibility: 1.55 miles (2.49 km)
Ceiling: at least 12,000 feet AGL
Clouds: sky clear below 12,000 feet AGL
Weather: FU  (smoke)

METAR text: VABB 240400Z 13004KT 2500 FU NSC 31/16 Q1012 NOSIG
Conditions at: VABB (BOMBAY/SANTACRUZ, IN) observed 0400 UTC 24 March 2019
Temperature: 31.0°C (88°F)
Dewpoint: 16.0°C (61°F) [RH = 40%]
Pressure (altimeter): 29.88 inches Hg (1012.0 mb)
Winds: from the SE (130 degrees) at 5 MPH (4 knots; 2.1 m/s)
Visibility: 1.55 miles (2.49 km)
Ceiling: at least 12,000 feet AGL
Clouds: sky clear below 12,000 feet AGL
Weather: FU  (smoke)

METAR text: VABB 240330Z 00000KT 2500 FU NSC 31/17 Q1012 NOSIG
Conditions at: VABB (BOMBAY/SANTACRUZ, IN) observed 0330 UTC 24 March 2019
Temperature: 31.0°C (88°F)
Dewpoint: 17.0°C (63°F) [RH = 43%]
Pressure (altimeter): 29.88 inches Hg (1012.0 mb)
Winds: calm
Visibility: 1.55 miles (2.49 km)
Ceiling: at least 12,000 feet AGL
Clouds: sky clear below 12,000 feet AGL
Weather: FU  (smoke)

METAR text: VABB 240300Z 00000KT 2500 FU NSC 29/17 Q1012 NOSIG
Conditions at: VABB (BOMBAY/SANTACRUZ, IN) observed 0300 UTC 24 March 2019
Temperature: 29.0°C (84°F)
Dewpoint: 17.0°C (63°F) [RH = 48%]
Pressure (altimeter): 29.88 inches Hg (1012.0 mb)
Winds: calm
Visibility: 1.55 miles (2.49 km)
Ceiling: at least 12,000 feet AGL
Clouds: sky clear below 12,000 feet AGL
Weather: FU  (smoke)

METAR text: VABB 240230Z 00000KT 2500 FU NSC 28/17 Q1011 NOSIG
Conditions at: VABB (BOMBAY/SANTACRUZ, IN) observed 0230 UTC 24 March 2019
Temperature: 28.0°C (82°F)
Dewpoint: 17.0°C (63°F) [RH = 51%]
Pressure (altimeter): 29.85 inches Hg (1011.0 mb)
Winds: calm
Visibility: 1.55 miles (2.49 km)
Ceiling: at least 12,000 feet AGL
Clouds: sky clear below 12,000 feet AGL
Weather: FU  (smoke)

METAR text: VABB 240200Z 00000KT 2500 FU NSC 27/17 Q1011 NOSIG
Conditions at: VABB (BOMBAY/SANTACRUZ, IN) observed 0200 UTC 24 March 2019
Temperature: 27.0°C (81°F)
Dewpoint: 17.0°C (63°F) [RH = 54%]
Pressure (altimeter): 29.85 inches Hg (1011.0 mb)
Winds: calm
Visibility: 1.55 miles (2.49 km)
Ceiling: at least 12,000 feet AGL
Clouds: sky clear below 12,000 feet AGL
Weather: FU  (smoke)

METAR text: VABB 240130Z 00000KT 2500 FU NSC 27/17 Q1011 NOSIG
Conditions at: VABB (BOMBAY/SANTACRUZ, IN) observed 0130 UTC 24 March 2019
Temperature: 27.0°C (81°F)
Dewpoint: 17.0°C (63°F) [RH = 54%]
Pressure (altimeter): 29.85 inches Hg (1011.0 mb)
Winds: calm
Visibility: 1.55 miles (2.49 km)
Ceiling: at least 12,000 feet AGL
Clouds: sky clear below 12,000 feet AGL
Weather: FU  (smoke)

METAR text: VABB 240100Z 04005KT 2500 FU NSC 27/17 Q1010 NOSIG
Conditions at: VABB (BOMBAY/SANTACRUZ, IN) observed 0100 UTC 24 March 2019
Temperature: 27.0°C (81°F)
Dewpoint: 17.0°C (63°F) [RH = 54%]
Pressure (altimeter): 29.82 inches Hg (1010.0 mb)
Winds: from the NE (40 degrees) at 6 MPH (5 knots; 2.6 m/s)
Visibility: 1.55 miles (2.49 km)
Ceiling: at least 12,000 feet AGL
Clouds: sky clear below 12,000 feet AGL
Weather: FU  (smoke)

METAR text: VABB 240030Z 34003KT 2500 FU NSC 27/17 Q1010 NOSIG
Conditions at: VABB (BOMBAY/SANTACRUZ, IN) observed 0030 UTC 24 March 2019
Temperature: 27.0°C (81°F)
Dewpoint: 17.0°C (63°F) [RH = 54%]
Pressure (altimeter): 29.82 inches Hg (1010.0 mb)
Winds: from the NNW (340 degrees) at 3 MPH (3 knots; 1.5 m/s)
Visibility: 1.55 miles (2.49 km)
Ceiling: at least 12,000 feet AGL
Clouds: sky clear below 12,000 feet AGL
Weather: FU  (smoke)

METAR text: VABB 240000Z 33005KT 3000 FU NSC 27/17 Q1010 NOSIG
Conditions at: VABB (BOMBAY/SANTACRUZ, IN) observed 0000 UTC 24 March 2019
Temperature: 27.0°C (81°F)
Dewpoint: 17.0°C (63°F) [RH = 54%]
Pressure (altimeter): 29.82 inches Hg (1010.0 mb)
Winds: from the NNW (330 degrees) at 6 MPH (5 knots; 2.6 m/s)
Visibility: 1.86 miles (2.99 km)
Ceiling: at least 12,000 feet AGL
Clouds: sky clear below 12,000 feet AGL
Weather: FU  (smoke)

METAR text: VABB 232330Z 32004KT 3000 FU NSC 27/17 Q1010 NOSIG
Conditions at: VABB (BOMBAY/SANTACRUZ, IN) observed 2330 UTC 23 March 2019
Temperature: 27.0°C (81°F)
Dewpoint: 17.0°C (63°F) [RH = 54%]
Pressure (altimeter): 29.82 inches Hg (1010.0 mb)
Winds: from the NW (320 degrees) at 5 MPH (4 knots; 2.1 m/s)
Visibility: 1.86 miles (2.99 km)
Ceiling: at least 12,000 feet AGL
Clouds: sky clear below 12,000 feet AGL
Weather: FU  (smoke)

METAR text: VABB 232300Z 32003KT 3000 FU NSC 28/18 Q1009 NOSIG
Conditions at: VABB (BOMBAY/SANTACRUZ, IN) observed 2300 UTC 23 March 2019
Temperature: 28.0°C (82°F)
Dewpoint: 18.0°C (64°F) [RH = 55%]
Pressure (altimeter): 29.79 inches Hg (1009.0 mb)
Winds: from the NW (320 degrees) at 3 MPH (3 knots; 1.5 m/s)
Visibility: 1.86 miles (2.99 km)
Ceiling: at least 12,000 feet AGL
Clouds: sky clear below 12,000 feet AGL
Weather: FU  (smoke)

METAR text: VABB 232230Z 35005KT 3000 FU NSC 28/18 Q1009 NOSIG
Conditions at: VABB (BOMBAY/SANTACRUZ, IN) observed 2230 UTC 23 March 2019
Temperature: 28.0°C (82°F)
Dewpoint: 18.0°C (64°F) [RH = 55%]
Pressure (altimeter): 29.79 inches Hg (1009.0 mb)
Winds: from the N (350 degrees) at 6 MPH (5 knots; 2.6 m/s)
Visibility: 1.86 miles (2.99 km)
Ceiling: at least 12,000 feet AGL
Clouds: sky clear below 12,000 feet AGL
Weather: FU  (smoke)

METAR text: VABB 232200Z 32005KT 3000 FU NSC 28/19 Q1009 NOSIG
Conditions at: VABB (BOMBAY/SANTACRUZ, IN) observed 2200 UTC 23 March 2019
Temperature: 28.0°C (82°F)
Dewpoint: 19.0°C (66°F) [RH = 58%]
Pressure (altimeter): 29.79 inches Hg (1009.0 mb)
Winds: from the NW (320 degrees) at 6 MPH (5 knots; 2.6 m/s)
Visibility: 1.86 miles (2.99 km)
Ceiling: at least 12,000 feet AGL
Clouds: sky clear below 12,000 feet AGL
Weather: FU  (smoke)

METAR text: VABB 232130Z 33005KT 3000 FU NSC 28/20 Q1010 NOSIG
Conditions at: VABB (BOMBAY/SANTACRUZ, IN) observed 2130 UTC 23 March 2019
Temperature: 28.0°C (82°F)
Dewpoint: 20.0°C (68°F) [RH = 62%]
Pressure (altimeter): 29.82 inches Hg (1010.0 mb)
Winds: from the NNW (330 degrees) at 6 MPH (5 knots; 2.6 m/s)
Visibility: 1.86 miles (2.99 km)
Ceiling: at least 12,000 feet AGL
Clouds: sky clear below 12,000 feet AGL
Weather: FU  (smoke)

METAR text: VABB 232100Z 30006KT 3000 FU NSC 28/20 Q1010 NOSIG
Conditions at: VABB (BOMBAY/SANTACRUZ, IN) observed 2100 UTC 23 March 2019
Temperature: 28.0°C (82°F)
Dewpoint: 20.0°C (68°F) [RH = 62%]
Pressure (altimeter): 29.82 inches Hg (1010.0 mb)
Winds: from the WNW (300 degrees) at 7 MPH (6 knots; 3.1 m/s)
Visibility: 1.86 miles (2.99 km)
Ceiling: at least 12,000 feet AGL
Clouds: sky clear below 12,000 feet AGL
Weather: FU  (smoke)

METAR text: VABB 232030Z 29005KT 3000 FU NSC 27/21 Q1010 NOSIG
Conditions at: VABB (BOMBAY/SANTACRUZ, IN) observed 2030 UTC 23 March 2019
Temperature: 27.0°C (81°F)
Dewpoint: 21.0°C (70°F) [RH = 70%]
Pressure (altimeter): 29.82 inches Hg (1010.0 mb)
Winds: from the WNW (290 degrees) at 6 MPH (5 knots; 2.6 m/s)
Visibility: 1.86 miles (2.99 km)
Ceiling: at least 12,000 feet AGL
Clouds: sky clear below 12,000 feet AGL
Weather: FU  (smoke)

METAR text: VABB 232000Z 26007KT 3000 FU NSC 28/16 Q1010 NOSIG
Conditions at: VABB (BOMBAY/SANTACRUZ, IN) observed 2000 UTC 23 March 2019
Temperature: 28.0°C (82°F)
Dewpoint: 16.0°C (61°F) [RH = 48%]
Pressure (altimeter): 29.82 inches Hg (1010.0 mb)
Winds: from the W (260 degrees) at 8 MPH (7 knots; 3.6 m/s)
Visibility: 1.86 miles (2.99 km)
Ceiling: at least 12,000 feet AGL
Clouds: sky clear below 12,000 feet AGL
Weather: FU  (smoke)

METAR text: VABB 231930Z 00000KT 3000 FU NSC 28/15 Q1010 NOSIG
Conditions at: VABB (BOMBAY/SANTACRUZ, IN) observed 1930 UTC 23 March 2019
Temperature: 28.0°C (82°F)
Dewpoint: 15.0°C (59°F) [RH = 45%]
Pressure (altimeter): 29.82 inches Hg (1010.0 mb)
Winds: calm
Visibility: 1.86 miles (2.99 km)
Ceiling: at least 12,000 feet AGL
Clouds: sky clear below 12,000 feet AGL
Weather: FU  (smoke)

METAR text: VABB 231900Z 00000KT 3000 FU NSC 30/16 Q1010 NOSIG
Conditions at: VABB (BOMBAY/SANTACRUZ, IN) observed 1900 UTC 23 March 2019
Temperature: 30.0°C (86°F)
Dewpoint: 16.0°C (61°F) [RH = 43%]
Pressure (altimeter): 29.82 inches Hg (1010.0 mb)
Winds: calm
Visibility: 1.86 miles (2.99 km)
Ceiling: at least 12,000 feet AGL
Clouds: sky clear below 12,000 feet AGL
Weather: FU  (smoke)

METAR text: VABB 231830Z 06004KT 3000 FU NSC 30/13 Q1011 NOSIG
Conditions at: VABB (BOMBAY/SANTACRUZ, IN) observed 1830 UTC 23 March 2019
Temperature: 30.0°C (86°F)
Dewpoint: 13.0°C (55°F) [RH = 35%]
Pressure (altimeter): 29.85 inches Hg (1011.0 mb)
Winds: from the ENE (60 degrees) at 5 MPH (4 knots; 2.1 m/s)
Visibility: 1.86 miles (2.99 km)
Ceiling: at least 12,000 feet AGL
Clouds: sky clear below 12,000 feet AGL
Weather: FU  (smoke)

METAR text: VABB 231800Z 02004KT 3000 FU NSC 31/13 Q1011 NOSIG
Conditions at: VABB (BOMBAY/SANTACRUZ, IN) observed 1800 UTC 23 March 2019
Temperature: 31.0°C (88°F)
Dewpoint: 13.0°C (55°F) [RH = 33%]
Pressure (altimeter): 29.85 inches Hg (1011.0 mb)
Winds: from the NNE (20 degrees) at 5 MPH (4 knots; 2.1 m/s)
Visibility: 1.86 miles (2.99 km)
Ceiling: at least 12,000 feet AGL
Clouds: sky clear below 12,000 feet AGL
Weather: FU  (smoke)

METAR text: VABB 231730Z 02004KT 3000 FU NSC 31/14 Q1011 NOSIG
Conditions at: VABB (BOMBAY/SANTACRUZ, IN) observed 1730 UTC 23 March 2019
Temperature: 31.0°C (88°F)
Dewpoint: 14.0°C (57°F) [RH = 36%]
Pressure (altimeter): 29.85 inches Hg (1011.0 mb)
Winds: from the NNE (20 degrees) at 5 MPH (4 knots; 2.1 m/s)
Visibility: 1.86 miles (2.99 km)
Ceiling: at least 12,000 feet AGL
Clouds: sky clear below 12,000 feet AGL
Weather: FU  (smoke)

METAR text: VABB 231700Z 20004KT 3000 FU NSC 31/15 Q1011 NOSIG
Conditions at: VABB (BOMBAY/SANTACRUZ, IN) observed 1700 UTC 23 March 2019
Temperature: 31.0°C (88°F)
Dewpoint: 15.0°C (59°F) [RH = 38%]
Pressure (altimeter): 29.85 inches Hg (1011.0 mb)
Winds: from the SSW (200 degrees) at 5 MPH (4 knots; 2.1 m/s)
Visibility: 1.86 miles (2.99 km)
Ceiling: at least 12,000 feet AGL
Clouds: sky clear below 12,000 feet AGL
Weather: FU  (smoke)

METAR text: VABB 231630Z 00000KT 3000 FU NSC 31/16 Q1011 NOSIG
Conditions at: VABB (BOMBAY/SANTACRUZ, IN) observed 1630 UTC 23 March 2019
Temperature: 31.0°C (88°F)
Dewpoint: 16.0°C (61°F) [RH = 40%]
Pressure (altimeter): 29.85 inches Hg (1011.0 mb)
Winds: calm
Visibility: 1.86 miles (2.99 km)
Ceiling: at least 12,000 feet AGL
Clouds: sky clear below 12,000 feet AGL
Weather: FU  (smoke)

METAR text: VABB 231600Z 00000KT 3000 FU NSC 31/17 Q1010 NOSIG
Conditions at: VABB (BOMBAY/SANTACRUZ, IN) observed 1600 UTC 23 March 2019
Temperature: 31.0°C (88°F)
Dewpoint: 17.0°C (63°F) [RH = 43%]
Pressure (altimeter): 29.82 inches Hg (1010.0 mb)
Winds: calm
Visibility: 1.86 miles (2.99 km)
Ceiling: at least 12,000 feet AGL
Clouds: sky clear below 12,000 feet AGL
Weather: FU  (smoke)

METAR text: VABB 231530Z 32004KT 3000 FU NSC 31/16 Q1010 NOSIG
Conditions at: VABB (BOMBAY/SANTACRUZ, IN) observed 1530 UTC 23 March 2019
Temperature: 31.0°C (88°F)
Dewpoint: 16.0°C (61°F) [RH = 40%]
Pressure (altimeter): 29.82 inches Hg (1010.0 mb)
Winds: from the NW (320 degrees) at 5 MPH (4 knots; 2.1 m/s)
Visibility: 1.86 miles (2.99 km)
Ceiling: at least 12,000 feet AGL
Clouds: sky clear below 12,000 feet AGL
Weather: FU  (smoke)

METAR text: VABB 231500Z 36006KT 3500 FU NSC 32/16 Q1010 BECMG 3000 FU
Conditions at: VABB (BOMBAY/SANTACRUZ, IN) observed 1500 UTC 23 March 2019
Temperature: 32.0°C (90°F)
Dewpoint: 16.0°C (61°F) [RH = 38%]
Pressure (altimeter): 29.82 inches Hg (1010.0 mb)
Winds: from the N (360 degrees) at 7 MPH (6 knots; 3.1 m/s)
Visibility: 2.17 miles (3.49 km)
Ceiling: at least 12,000 feet AGL
Clouds: sky clear below 12,000 feet AGL
Weather: FU  (smoke)

METAR text: VABB 231430Z 33004KT 3500 FU NSC 32/16 Q1010 NOSIG
Conditions at: VABB (BOMBAY/SANTACRUZ, IN) observed 1430 UTC 23 March 2019
Temperature: 32.0°C (90°F)
Dewpoint: 16.0°C (61°F) [RH = 38%]
Pressure (altimeter): 29.82 inches Hg (1010.0 mb)
Winds: from the NNW (330 degrees) at 5 MPH (4 knots; 2.1 m/s)
Visibility: 2.17 miles (3.49 km)
Ceiling: at least 12,000 feet AGL
Clouds: sky clear below 12,000 feet AGL
Weather: FU  (smoke)

METAR text: VABB 231400Z 33003KT 3500 FU FEW100 32/14 Q1009 NOSIG
Conditions at: VABB (BOMBAY/SANTACRUZ, IN) observed 1400 UTC 23 March 2019
Temperature: 32.0°C (90°F)
Dewpoint: 14.0°C (57°F) [RH = 34%]
Pressure (altimeter): 29.79 inches Hg (1009.0 mb)
Winds: from the NNW (330 degrees) at 3 MPH (3 knots; 1.5 m/s)
Visibility: 2.17 miles (3.49 km)
Ceiling: at least 12,000 feet AGL
Clouds: few clouds at 10000 feet AGL
Weather: FU  (smoke)

METAR text: VABB 231330Z 30004KT 5000 FEW100 32/15 Q1009 BECMG 4000 FU
Conditions at: VABB (BOMBAY/SANTACRUZ, IN) observed 1330 UTC 23 March 2019
Temperature: 32.0°C (90°F)
Dewpoint: 15.0°C (59°F) [RH = 36%]
Pressure (altimeter): 29.79 inches Hg (1009.0 mb)
Winds: from the WNW (300 degrees) at 5 MPH (4 knots; 2.1 m/s)
Visibility: 3 miles ( 5 km)
Ceiling: at least 12,000 feet AGL
Clouds: few clouds at 10000 feet AGL
Weather: no significant weather observed at this time

METAR text: VABB 231300Z 34006KT 6000 NSC 33/15 Q1009 BECMG 5000 FU
Conditions at: VABB (BOMBAY/SANTACRUZ, IN) observed 1300 UTC 23 March 2019
Temperature: 33.0°C (91°F)
Dewpoint: 15.0°C (59°F) [RH = 34%]
Pressure (altimeter): 29.79 inches Hg (1009.0 mb)
Winds: from the NNW (340 degrees) at 7 MPH (6 knots; 3.1 m/s)
Visibility: 4 miles ( 6 km)
Ceiling: at least 12,000 feet AGL
Clouds: sky clear below 12,000 feet AGL
Weather: no significant weather observed at this time

METAR text: VABB 231230Z 32009KT 6000 NSC 33/15 Q1009 NOSIG
Conditions at: VABB (BOMBAY/SANTACRUZ, IN) observed 1230 UTC 23 March 2019
Temperature: 33.0°C (91°F)
Dewpoint: 15.0°C (59°F) [RH = 34%]
Pressure (altimeter): 29.79 inches Hg (1009.0 mb)
Winds: from the NW (320 degrees) at 10 MPH (9 knots; 4.6 m/s)
Visibility: 4 miles ( 6 km)
Ceiling: at least 12,000 feet AGL
Clouds: sky clear below 12,000 feet AGL
Weather: no significant weather observed at this time

METAR text: VABB 231200Z 31008KT 6000 NSC 34/16 Q1009 NOSIG
Conditions at: VABB (BOMBAY/SANTACRUZ, IN) observed 1200 UTC 23 March 2019
Temperature: 34.0°C (93°F)
Dewpoint: 16.0°C (61°F) [RH = 34%]
Pressure (altimeter): 29.79 inches Hg (1009.0 mb)
Winds: from the NW (310 degrees) at 9 MPH (8 knots; 4.1 m/s)
Visibility: 4 miles ( 6 km)
Ceiling: at least 12,000 feet AGL
Clouds: sky clear below 12,000 feet AGL
Weather: no significant weather observed at this time

METAR text: VABB 231130Z 32008KT 6000 NSC 34/17 Q1009 NOSIG
Conditions at: VABB (BOMBAY/SANTACRUZ, IN) observed 1130 UTC 23 March 2019
Temperature: 34.0°C (93°F)
Dewpoint: 17.0°C (63°F) [RH = 36%]
Pressure (altimeter): 29.79 inches Hg (1009.0 mb)
Winds: from the NW (320 degrees) at 9 MPH (8 knots; 4.1 m/s)
Visibility: 4 miles ( 6 km)
Ceiling: at least 12,000 feet AGL
Clouds: sky clear below 12,000 feet AGL
Weather: no significant weather observed at this time

METAR text: VABB 231100Z 31010KT 6000 NSC 34/17 Q1009 NOSIG
Conditions at: VABB (BOMBAY/SANTACRUZ, IN) observed 1100 UTC 23 March 2019
Temperature: 34.0°C (93°F)
Dewpoint: 17.0°C (63°F) [RH = 36%]
Pressure (altimeter): 29.79 inches Hg (1009.0 mb)
Winds: from the NW (310 degrees) at 12 MPH (10 knots; 5.1 m/s)
Visibility: 4 miles ( 6 km)
Ceiling: at least 12,000 feet AGL
Clouds: sky clear below 12,000 feet AGL
Weather: no significant weather observed at this time

METAR text: VABB 231030Z 31011KT 6000 NSC 34/17 Q1009 NOSIG
Conditions at: VABB (BOMBAY/SANTACRUZ, IN) observed 1030 UTC 23 March 2019
Temperature: 34.0°C (93°F)
Dewpoint: 17.0°C (63°F) [RH = 36%]
Pressure (altimeter): 29.79 inches Hg (1009.0 mb)
Winds: from the NW (310 degrees) at 13 MPH (11 knots; 5.7 m/s)
Visibility: 4 miles ( 6 km)
Ceiling: at least 12,000 feet AGL
Clouds: sky clear below 12,000 feet AGL
Weather: no significant weather observed at this time

METAR text: VABB 231000Z 30010KT 6000 NSC 34/18 Q1009 NOSIG
Conditions at: VABB (BOMBAY/SANTACRUZ, IN) observed 1000 UTC 23 March 2019
Temperature: 34.0°C (93°F)
Dewpoint: 18.0°C (64°F) [RH = 39%]
Pressure (altimeter): 29.79 inches Hg (1009.0 mb)
Winds: from the WNW (300 degrees) at 12 MPH (10 knots; 5.1 m/s)
Visibility: 4 miles ( 6 km)
Ceiling: at least 12,000 feet AGL
Clouds: sky clear below 12,000 feet AGL
Weather: no significant weather observed at this time

METAR text: VABB 230930Z 30011KT 5000 FU NSC 34/18 Q1010 NOSIG
Conditions at: VABB (BOMBAY/SANTACRUZ, IN) observed 0930 UTC 23 March 2019
Temperature: 34.0°C (93°F)
Dewpoint: 18.0°C (64°F) [RH = 39%]
Pressure (altimeter): 29.82 inches Hg (1010.0 mb)
Winds: from the WNW (300 degrees) at 13 MPH (11 knots; 5.7 m/s)
Visibility: 3 miles ( 5 km)
Ceiling: at least 12,000 feet AGL
Clouds: sky clear below 12,000 feet AGL
Weather: FU  (smoke)

METAR text: VABB 230900Z 30009KT 5000 FU NSC 34/18 Q1010 NOSIG
Conditions at: VABB (BOMBAY/SANTACRUZ, IN) observed 0900 UTC 23 March 2019
Temperature: 34.0°C (93°F)
Dewpoint: 18.0°C (64°F) [RH = 39%]
Pressure (altimeter): 29.82 inches Hg (1010.0 mb)
Winds: from the WNW (300 degrees) at 10 MPH (9 knots; 4.6 m/s)
Visibility: 3 miles ( 5 km)
Ceiling: at least 12,000 feet AGL
Clouds: sky clear below 12,000 feet AGL
Weather: FU  (smoke)

METAR text: VABB 230830Z 29010KT 5000 FU NSC 34/17 Q1010 NOSIG
Conditions at: VABB (BOMBAY/SANTACRUZ, IN) observed 0830 UTC 23 March 2019
Temperature: 34.0°C (93°F)
Dewpoint: 17.0°C (63°F) [RH = 36%]
Pressure (altimeter): 29.82 inches Hg (1010.0 mb)
Winds: from the WNW (290 degrees) at 12 MPH (10 knots; 5.1 m/s)
Visibility: 3 miles ( 5 km)
Ceiling: at least 12,000 feet AGL
Clouds: sky clear below 12,000 feet AGL
Weather: FU  (smoke)

METAR text: VABB 230800Z 30011KT 4000 FU NSC 33/18 Q1011 BECMG 5000 FU
Conditions at: VABB (BOMBAY/SANTACRUZ, IN) observed 0800 UTC 23 March 2019
Temperature: 33.0°C (91°F)
Dewpoint: 18.0°C (64°F) [RH = 41%]
Pressure (altimeter): 29.85 inches Hg (1011.0 mb)
Winds: from the WNW (300 degrees) at 13 MPH (11 knots; 5.7 m/s)
Visibility: 2.49 miles (4.01 km)
Ceiling: at least 12,000 feet AGL
Clouds: sky clear below 12,000 feet AGL
Weather: FU  (smoke)

METAR text: VABB 230730Z 30011KT 4000 FU NSC 33/18 Q1011 BECMG 5000 FU
Conditions at: VABB (BOMBAY/SANTACRUZ, IN) observed 0730 UTC 23 March 2019
Temperature: 33.0°C (91°F)
Dewpoint: 18.0°C (64°F) [RH = 41%]
Pressure (altimeter): 29.85 inches Hg (1011.0 mb)
Winds: from the WNW (300 degrees) at 13 MPH (11 knots; 5.7 m/s)
Visibility: 2.49 miles (4.01 km)
Ceiling: at least 12,000 feet AGL
Clouds: sky clear below 12,000 feet AGL
Weather: FU  (smoke)

METAR text: VABB 230700Z 27011KT 4000 FU NSC 33/20 Q1012 BECMG 5000 FU
Conditions at: VABB (BOMBAY/SANTACRUZ, IN) observed 0700 UTC 23 March 2019
Temperature: 33.0°C (91°F)
Dewpoint: 20.0°C (68°F) [RH = 46%]
Pressure (altimeter): 29.88 inches Hg (1012.0 mb)
Winds: from the W (270 degrees) at 13 MPH (11 knots; 5.7 m/s)
Visibility: 2.49 miles (4.01 km)
Ceiling: at least 12,000 feet AGL
Clouds: sky clear below 12,000 feet AGL
Weather: FU  (smoke)

METAR text: VABB 230630Z 26010KT 4000 FU NSC 33/20 Q1012 NOSIG
Conditions at: VABB (BOMBAY/SANTACRUZ, IN) observed 0630 UTC 23 March 2019
Temperature: 33.0°C (91°F)
Dewpoint: 20.0°C (68°F) [RH = 46%]
Pressure (altimeter): 29.88 inches Hg (1012.0 mb)
Winds: from the W (260 degrees) at 12 MPH (10 knots; 5.1 m/s)
Visibility: 2.49 miles (4.01 km)
Ceiling: at least 12,000 feet AGL
Clouds: sky clear below 12,000 feet AGL
Weather: FU  (smoke)

METAR text: VABB 230600Z 30005KT 4000 FU NSC 33/17 Q1013 NOSIG
Conditions at: VABB (BOMBAY/SANTACRUZ, IN) observed 0600 UTC 23 March 2019
Temperature: 33.0°C (91°F)
Dewpoint: 17.0°C (63°F) [RH = 39%]
Pressure (altimeter): 29.91 inches Hg (1013.0 mb)
Winds: from the WNW (300 degrees) at 6 MPH (5 knots; 2.6 m/s)
Visibility: 2.49 miles (4.01 km)
Ceiling: at least 12,000 feet AGL
Clouds: sky clear below 12,000 feet AGL
Weather: FU  (smoke)

METAR text: VABB 230530Z 05005KT 4000 FU NSC 33/15 Q1013 NOSIG
Conditions at: VABB (BOMBAY/SANTACRUZ, IN) observed 0530 UTC 23 March 2019
Temperature: 33.0°C (91°F)
Dewpoint: 15.0°C (59°F) [RH = 34%]
Pressure (altimeter): 29.91 inches Hg (1013.0 mb)
Winds: from the NE (50 degrees) at 6 MPH (5 knots; 2.6 m/s)
Visibility: 2.49 miles (4.01 km)
Ceiling: at least 12,000 feet AGL
Clouds: sky clear below 12,000 feet AGL
Weather: FU  (smoke)

METAR text: VABB 230500Z 28004KT 3500 FU NSC 32/15 Q1014 NOSIG
Conditions at: VABB (BOMBAY/SANTACRUZ, IN) observed 0500 UTC 23 March 2019
Temperature: 32.0°C (90°F)
Dewpoint: 15.0°C (59°F) [RH = 36%]
Pressure (altimeter): 29.94 inches Hg (1014.0 mb)
Winds: from the W (280 degrees) at 5 MPH (4 knots; 2.1 m/s)
Visibility: 2.17 miles (3.49 km)
Ceiling: at least 12,000 feet AGL
Clouds: sky clear below 12,000 feet AGL
Weather: FU  (smoke)

METAR text: VABB 230430Z 33005KT 3500 FU NSC 31/14 Q1014 NOSIG
Conditions at: VABB (BOMBAY/SANTACRUZ, IN) observed 0430 UTC 23 March 2019
Temperature: 31.0°C (88°F)
Dewpoint: 14.0°C (57°F) [RH = 36%]
Pressure (altimeter): 29.94 inches Hg (1014.0 mb)
Winds: from the NNW (330 degrees) at 6 MPH (5 knots; 2.6 m/s)
Visibility: 2.17 miles (3.49 km)
Ceiling: at least 12,000 feet AGL
Clouds: sky clear below 12,000 feet AGL
Weather: FU  (smoke)

METAR text: VABB 230400Z 34006KT 3000 FU NSC 30/15 Q1014 BECMG 4000 FU
Conditions at: VABB (BOMBAY/SANTACRUZ, IN) observed 0400 UTC 23 March 2019
Temperature: 30.0°C (86°F)
Dewpoint: 15.0°C (59°F) [RH = 40%]
Pressure (altimeter): 29.94 inches Hg (1014.0 mb)
Winds: from the NNW (340 degrees) at 7 MPH (6 knots; 3.1 m/s)
Visibility: 1.86 miles (2.99 km)
Ceiling: at least 12,000 feet AGL
Clouds: sky clear below 12,000 feet AGL
Weather: FU  (smoke)

METAR text: VABB 230330Z 34003KT 3000 FU NSC 29/16 Q1014 NOSIG
Conditions at: VABB (BOMBAY/SANTACRUZ, IN) observed 0330 UTC 23 March 2019
Temperature: 29.0°C (84°F)
Dewpoint: 16.0°C (61°F) [RH = 45%]
Pressure (altimeter): 29.94 inches Hg (1014.0 mb)
Winds: from the NNW (340 degrees) at 3 MPH (3 knots; 1.5 m/s)
Visibility: 1.86 miles (2.99 km)
Ceiling: at least 12,000 feet AGL
Clouds: sky clear below 12,000 feet AGL
Weather: FU  (smoke)

METAR text: VABB 230300Z 03004KT 3000 FU NSC 28/17 Q1014 NOSIG
Conditions at: VABB (BOMBAY/SANTACRUZ, IN) observed 0300 UTC 23 March 2019
Temperature: 28.0°C (82°F)
Dewpoint: 17.0°C (63°F) [RH = 51%]
Pressure (altimeter): 29.94 inches Hg (1014.0 mb)
Winds: from the NNE (30 degrees) at 5 MPH (4 knots; 2.1 m/s)
Visibility: 1.86 miles (2.99 km)
Ceiling: at least 12,000 feet AGL
Clouds: sky clear below 12,000 feet AGL
Weather: FU  (smoke)

METAR text: VABB 230230Z 00000KT 4000 FU NSC 27/17 Q1014 BECMG 3000 FU
Conditions at: VABB (BOMBAY/SANTACRUZ, IN) observed 0230 UTC 23 March 2019
Temperature: 27.0°C (81°F)
Dewpoint: 17.0°C (63°F) [RH = 54%]
Pressure (altimeter): 29.94 inches Hg (1014.0 mb)
Winds: calm
Visibility: 2.49 miles (4.01 km)
Ceiling: at least 12,000 feet AGL
Clouds: sky clear below 12,000 feet AGL
Weather: FU  (smoke)

METAR text: VABB 230200Z 04004KT 4000 FU NSC 26/17 Q1013 NOSIG
Conditions at: VABB (BOMBAY/SANTACRUZ, IN) observed 0200 UTC 23 March 2019
Temperature: 26.0°C (79°F)
Dewpoint: 17.0°C (63°F) [RH = 58%]
Pressure (altimeter): 29.91 inches Hg (1013.0 mb)
Winds: from the NE (40 degrees) at 5 MPH (4 knots; 2.1 m/s)
Visibility: 2.49 miles (4.01 km)
Ceiling: at least 12,000 feet AGL
Clouds: sky clear below 12,000 feet AGL
Weather: FU  (smoke)

METAR text: VABB 230130Z 01004KT 4000 HZ NSC 26/18 Q1013 NOSIG
Conditions at: VABB (BOMBAY/SANTACRUZ, IN) observed 0130 UTC 23 March 2019
Temperature: 26.0°C (79°F)
Dewpoint: 18.0°C (64°F) [RH = 61%]
Pressure (altimeter): 29.91 inches Hg (1013.0 mb)
Winds: from the N (10 degrees) at 5 MPH (4 knots; 2.1 m/s)
Visibility: 2.49 miles (4.01 km)
Ceiling: at least 12,000 feet AGL
Clouds: sky clear below 12,000 feet AGL
Weather: HZ  (haze)

METAR text: VABB 230100Z 02004KT 3000 HZ NSC 25/18 Q1012 NOSIG
Conditions at: VABB (BOMBAY/SANTACRUZ, IN) observed 0100 UTC 23 March 2019
Temperature: 25.0°C (77°F)
Dewpoint: 18.0°C (64°F) [RH = 65%]
Pressure (altimeter): 29.88 inches Hg (1012.0 mb)
Winds: from the NNE (20 degrees) at 5 MPH (4 knots; 2.1 m/s)
Visibility: 1.86 miles (2.99 km)
Ceiling: at least 12,000 feet AGL
Clouds: sky clear below 12,000 feet AGL
Weather: HZ  (haze)

METAR text: VABB 230030Z 02005KT 2500 HZ NSC 25/19 Q1012 NOSIG
Conditions at: VABB (BOMBAY/SANTACRUZ, IN) observed 0030 UTC 23 March 2019
Temperature: 25.0°C (77°F)
Dewpoint: 19.0°C (66°F) [RH = 69%]
Pressure (altimeter): 29.88 inches Hg (1012.0 mb)
Winds: from the NNE (20 degrees) at 6 MPH (5 knots; 2.6 m/s)
Visibility: 1.55 miles (2.49 km)
Ceiling: at least 12,000 feet AGL
Clouds: sky clear below 12,000 feet AGL
Weather: HZ  (haze)

METAR text: VABB 230000Z 00000KT 2500 HZ NSC 25/20 Q1012 NOSIG
Conditions at: VABB (BOMBAY/SANTACRUZ, IN) observed 0000 UTC 23 March 2019
Temperature: 25.0°C (77°F)
Dewpoint: 20.0°C (68°F) [RH = 74%]
Pressure (altimeter): 29.88 inches Hg (1012.0 mb)
Winds: calm
Visibility: 1.55 miles (2.49 km)
Ceiling: at least 12,000 feet AGL
Clouds: sky clear below 12,000 feet AGL
Weather: HZ  (haze)

METAR text: VABB 222330Z 34005KT 2500 HZ NSC 25/20 Q1012 NOSIG
Conditions at: VABB (BOMBAY/SANTACRUZ, IN) observed 2330 UTC 22 March 2019
Temperature: 25.0°C (77°F)
Dewpoint: 20.0°C (68°F) [RH = 74%]
Pressure (altimeter): 29.88 inches Hg (1012.0 mb)
Winds: from the NNW (340 degrees) at 6 MPH (5 knots; 2.6 m/s)
Visibility: 1.55 miles (2.49 km)
Ceiling: at least 12,000 feet AGL
Clouds: sky clear below 12,000 feet AGL
Weather: HZ  (haze)

METAR text: VABB 222300Z 34005KT 2500 HZ NSC 26/21 Q1012 NOSIG
Conditions at: VABB (BOMBAY/SANTACRUZ, IN) observed 2300 UTC 22 March 2019
Temperature: 26.0°C (79°F)
Dewpoint: 21.0°C (70°F) [RH = 74%]
Pressure (altimeter): 29.88 inches Hg (1012.0 mb)
Winds: from the NNW (340 degrees) at 6 MPH (5 knots; 2.6 m/s)
Visibility: 1.55 miles (2.49 km)
Ceiling: at least 12,000 feet AGL
Clouds: sky clear below 12,000 feet AGL
Weather: HZ  (haze)

METAR text: VABB 222230Z 34007KT 2500 HZ NSC 26/21 Q1012 NOSIG
Conditions at: VABB (BOMBAY/SANTACRUZ, IN) observed 2230 UTC 22 March 2019
Temperature: 26.0°C (79°F)
Dewpoint: 21.0°C (70°F) [RH = 74%]
Pressure (altimeter): 29.88 inches Hg (1012.0 mb)
Winds: from the NNW (340 degrees) at 8 MPH (7 knots; 3.6 m/s)
Visibility: 1.55 miles (2.49 km)
Ceiling: at least 12,000 feet AGL
Clouds: sky clear below 12,000 feet AGL
Weather: HZ  (haze)

METAR text: VABB 222200Z 33007KT 3000 HZ NSC 26/21 Q1012 NOSIG
Conditions at: VABB (BOMBAY/SANTACRUZ, IN) observed 2200 UTC 22 March 2019
Temperature: 26.0°C (79°F)
Dewpoint: 21.0°C (70°F) [RH = 74%]
Pressure (altimeter): 29.88 inches Hg (1012.0 mb)
Winds: from the NNW (330 degrees) at 8 MPH (7 knots; 3.6 m/s)
Visibility: 1.86 miles (2.99 km)
Ceiling: at least 12,000 feet AGL
Clouds: sky clear below 12,000 feet AGL
Weather: HZ  (haze)

METAR text: VABB 222130Z 34008KT 3000 HZ NSC 26/21 Q1012 NOSIG
Conditions at: VABB (BOMBAY/SANTACRUZ, IN) observed 2130 UTC 22 March 2019
Temperature: 26.0°C (79°F)
Dewpoint: 21.0°C (70°F) [RH = 74%]
Pressure (altimeter): 29.88 inches Hg (1012.0 mb)
Winds: from the NNW (340 degrees) at 9 MPH (8 knots; 4.1 m/s)
Visibility: 1.86 miles (2.99 km)
Ceiling: at least 12,000 feet AGL
Clouds: sky clear below 12,000 feet AGL
Weather: HZ  (haze)

Forecast for: VABB (BOMBAY/SANTACRUZ, IN)
Text: TAF VABB 240800Z 2409/2418 26010KT 4000 FU NSC
Forecast period: 0900 to 1000 UTC 24 March 2019
Forecast type: FROM: standard forecast or significant change
Winds: from the W (260 degrees) at 12 MPH (10 knots; 5.1 m/s)
Visibility: 2.49 miles (4.01 km)
Ceiling: unknown
Clouds: missing
Weather: FU  (smoke)
Text: BECMG 2410/2412 32010KT 5000 FU
Forecast period: 1000 to 1700 UTC 24 March 2019
Forecast type: BECOMING: Conditions expected to become as follows by 1200 UTC 24 March 2019
Winds: from the NW (320 degrees) at 12 MPH (10 knots; 5.1 m/s)
Visibility: 3 miles (5 km)
Ceiling: unknown
Clouds: missing
Weather: FU  (smoke)
Text: BECMG 2417/2418 05004KT 3000 FU
Forecast period: 1700 to 1800 UTC 24 March 2019
Forecast type: BECOMING: Conditions expected to become as follows by 1800 UTC 24 March 2019
Winds: from the NE (50 degrees) at 5 MPH (4 knots; 2.1 m/s)
Visibility: 1.86 miles (2.99 km)
Ceiling: unknown
Clouds: missing
Weather: FU  (smoke)